Oregon State Flying Club

The Oregon State Flying Club is a non-profit organization committed to providing safe and inexpensive flying to the Oregon State University and Linn-Benton Community College communities. The Club currently owns three aircraft based at the Corvallis Airport for training, travel, and recreational purposes. Founded in 1952 and incorporated in 1956 the OSFC is one of the oldest continuously active flying clubs in the United States.

News & Announcements

Flying Club Open House  

Corvallis Airport, Sat, May 3rd, 10:00am to 3:00pm
Come talk to members, see our aircraft, and learn about the Oregon State Flying Club first hand. We look forward to seeing you there!

Monthly Board Meeting

Next Meeting: May 14 @ 6pm, MU: JPLC Talisman Room

Current METAR KCVO

Raw METAR:  KCVO 191655Z 21007KT 10SM BKN060 OVC070 10/07 A2990 RMK AO1

This is a report for Corvallis Municipal Automatic Weather Observing / Reporting System, United States. The report was made 9 minutes ago, at 16:55 UTC. The wind was blowing at a speed of 8.1 miles per hour (3.6 meters per second) from south/southwest (210°). The temperature was 50 °F (10 °C), with a dew-point at 45 °F (7 °C). The atmospheric pressure was 29.90 inHg (1013 hPa). The relative humidity was 81.6%. There were broken clouds at a height of 6000 feet (1829 meters). The sky was overcast from a height of 7000 feet (2134 meter) The overall visibility was 10.0 miles (16.1 kilometers).